sensor_id;sensor_type;location;lat;lon;timestamp;temperature;humidity
19805;DHT22;10062;51.052;13.756;2023-04-03T00:00:20;3.90;1.00
19805;DHT22;10062;51.052;13.756;2023-04-03T00:02:53;3.80;1.00
19805;DHT22;10062;51.052;13.756;2023-04-03T00:05:25;3.70;1.00
19805;DHT22;10062;51.052;13.756;2023-04-03T00:07:57;3.60;99.90
19805;DHT22;10062;51.052;13.756;2023-04-03T00:10:28;3.60;1.00
19805;DHT22;10062;51.052;13.756;2023-04-03T00:13:00;3.60;1.00
19805;DHT22;10062;51.052;13.756;2023-04-03T00:15:32;3.60;1.00
19805;DHT22;10062;51.052;13.756;2023-04-03T00:18:05;3.60;1.00
19805;DHT22;10062;51.052;13.756;2023-04-03T00:20:37;3.50;1.00
19805;DHT22;10062;51.052;13.756;2023-04-03T00:23:09;3.50;1.00
19805;DHT22;10062;51.052;13.756;2023-04-03T00:25:41;3.50;1.00
19805;DHT22;10062;51.052;13.756;2023-04-03T00:28:13;3.50;1.00
19805;DHT22;10062;51.052;13.756;2023-04-03T00:30:44;3.40;1.00
19805;DHT22;10062;51.052;13.756;2023-04-03T00:33:17;3.40;1.00
19805;DHT22;10062;51.052;13.756;2023-04-03T00:35:51;3.40;1.00
19805;DHT22;10062;51.052;13.756;2023-04-03T00:38:23;3.40;1.00
19805;DHT22;10062;51.052;13.756;2023-04-03T00:40:55;3.40;1.00
19805;DHT22;10062;51.052;13.756;2023-04-03T00:43:28;3.40;1.00
19805;DHT22;10062;51.052;13.756;2023-04-03T00:46:00;3.30;1.00
19805;DHT22;10062;51.052;13.756;2023-04-03T00:48:34;3.20;1.00
19805;DHT22;10062;51.052;13.756;2023-04-03T00:51:10;3.30;1.00
19805;DHT22;10062;51.052;13.756;2023-04-03T00:53:46;3.30;1.00
19805;DHT22;10062;51.052;13.756;2023-04-03T00:56:21;3.30;1.00
19805;DHT22;10062;51.052;13.756;2023-04-03T00:58:59;3.30;1.00
19805;DHT22;10062;51.052;13.756;2023-04-03T01:01:31;3.30;74.70
19805;DHT22;10062;51.052;13.756;2023-04-03T01:04:05;3.30;1.00
19805;DHT22;10062;51.052;13.756;2023-04-03T01:06:37;3.20;1.00
19805;DHT22;10062;51.052;13.756;2023-04-03T01:09:11;3.10;1.00
19805;DHT22;10062;51.052;13.756;2023-04-03T01:11:43;3.10;1.00
19805;DHT22;10062;51.052;13.756;2023-04-03T01:14:15;3.10;1.00
19805;DHT22;10062;51.052;13.756;2023-04-03T01:16:52;3.10;1.00
19805;DHT22;10062;51.052;13.756;2023-04-03T01:19:25;3.10;1.00
19805;DHT22;10062;51.052;13.756;2023-04-03T01:22:14;3.00;1.00
19805;DHT22;10062;51.052;13.756;2023-04-03T01:24:47;3.00;99.90
19805;DHT22;10062;51.052;13.756;2023-04-03T01:27:19;3.00;1.00
19805;DHT22;10062;51.052;13.756;2023-04-03T01:29:51;3.00;1.00
19805;DHT22;10062;51.052;13.756;2023-04-03T01:32:24;3.00;1.00
19805;DHT22;10062;51.052;13.756;2023-04-03T01:34:56;3.00;1.00
19805;DHT22;10062;51.052;13.756;2023-04-03T01:37:28;2.90;1.00
19805;DHT22;10062;51.052;13.756;2023-04-03T01:39:59;2.90;1.00
19805;DHT22;10062;51.052;13.756;2023-04-03T01:42:31;2.80;1.00
19805;DHT22;10062;51.052;13.756;2023-04-03T01:45:03;2.80;1.00
19805;DHT22;10062;51.052;13.756;2023-04-03T01:47:36;2.80;1.00
19805;DHT22;10062;51.052;13.756;2023-04-03T01:50:09;2.80;1.00
19805;DHT22;10062;51.052;13.756;2023-04-03T01:52:41;2.70;1.00
19805;DHT22;10062;51.052;13.756;2023-04-03T01:55:13;2.60;1.00
19805;DHT22;10062;51.052;13.756;2023-04-03T01:57:45;2.60;1.00
19805;DHT22;10062;51.052;13.756;2023-04-03T02:00:17;2.60;1.00
19805;DHT22;10062;51.052;13.756;2023-04-03T02:02:50;2.50;1.00
19805;DHT22;10062;51.052;13.756;2023-04-03T02:05:22;2.50;1.00
19805;DHT22;10062;51.052;13.756;2023-04-03T02:07:54;2.60;1.00
19805;DHT22;10062;51.052;13.756;2023-04-03T02:10:26;2.50;1.00
19805;DHT22;10062;51.052;13.756;2023-04-03T02:12:58;2.40;1.00
19805;DHT22;10062;51.052;13.756;2023-04-03T02:15:30;2.40;1.00
19805;DHT22;10062;51.052;13.756;2023-04-03T02:18:03;2.50;1.00
19805;DHT22;10062;51.052;13.756;2023-04-03T02:20:35;2.40;1.00
19805;DHT22;10062;51.052;13.756;2023-04-03T02:23:06;2.40;1.00
19805;DHT22;10062;51.052;13.756;2023-04-03T02:25:38;2.40;1.00
19805;DHT22;10062;51.052;13.756;2023-04-03T02:28:10;2.30;1.00
19805;DHT22;10062;51.052;13.756;2023-04-03T02:30:41;2.20;1.00
19805;DHT22;10062;51.052;13.756;2023-04-03T02:33:16;2.20;1.00
19805;DHT22;10062;51.052;13.756;2023-04-03T02:35:52;2.20;1.00
19805;DHT22;10062;51.052;13.756;2023-04-03T02:38:25;2.10;1.00
19805;DHT22;10062;51.052;13.756;2023-04-03T02:41:00;2.10;1.00
19805;DHT22;10062;51.052;13.756;2023-04-03T02:43:33;2.00;1.00
19805;DHT22;10062;51.052;13.756;2023-04-03T02:46:05;2.00;1.00
19805;DHT22;10062;51.052;13.756;2023-04-03T02:48:38;2.00;99.90
19805;DHT22;10062;51.052;13.756;2023-04-03T02:51:10;2.00;99.90
19805;DHT22;10062;51.052;13.756;2023-04-03T02:53:42;1.90;99.90
19805;DHT22;10062;51.052;13.756;2023-04-03T02:56:18;1.90;99.90
19805;DHT22;10062;51.052;13.756;2023-04-03T02:58:51;1.80;1.00
19805;DHT22;10062;51.052;13.756;2023-04-03T03:01:23;1.80;1.00
19805;DHT22;10062;51.052;13.756;2023-04-03T03:03:56;1.70;1.00
19805;DHT22;10062;51.052;13.756;2023-04-03T03:06:28;1.70;1.00
19805;DHT22;10062;51.052;13.756;2023-04-03T03:09:00;1.60;1.00
19805;DHT22;10062;51.052;13.756;2023-04-03T03:11:31;1.50;1.00
19805;DHT22;10062;51.052;13.756;2023-04-03T03:14:03;1.50;1.00
19805;DHT22;10062;51.052;13.756;2023-04-03T03:16:35;1.40;1.00
19805;DHT22;10062;51.052;13.756;2023-04-03T03:19:08;1.30;99.90
19805;DHT22;10062;51.052;13.756;2023-04-03T03:21:40;1.30;1.00
19805;DHT22;10062;51.052;13.756;2023-04-03T03:24:12;1.30;1.00
19805;DHT22;10062;51.052;13.756;2023-04-03T03:26:43;1.20;1.00
19805;DHT22;10062;51.052;13.756;2023-04-03T03:29:16;1.20;1.00
19805;DHT22;10062;51.052;13.756;2023-04-03T03:31:49;1.10;99.90
19805;DHT22;10062;51.052;13.756;2023-04-03T03:34:22;1.10;27.90
19805;DHT22;10062;51.052;13.756;2023-04-03T03:36:53;1.10;1.00
19805;DHT22;10062;51.052;13.756;2023-04-03T03:39:25;1.10;1.00
19805;DHT22;10062;51.052;13.756;2023-04-03T03:41:57;1.00;1.00
19805;DHT22;10062;51.052;13.756;2023-04-03T03:44:29;1.00;1.00
19805;DHT22;10062;51.052;13.756;2023-04-03T03:47:01;0.90;1.00
19805;DHT22;10062;51.052;13.756;2023-04-03T03:49:35;1.00;1.00
19805;DHT22;10062;51.052;13.756;2023-04-03T03:52:06;0.90;1.00
19805;DHT22;10062;51.052;13.756;2023-04-03T03:54:42;0.90;99.90
19805;DHT22;10062;51.052;13.756;2023-04-03T03:57:13;0.80;99.90
19805;DHT22;10062;51.052;13.756;2023-04-03T03:59:45;0.80;1.00
19805;DHT22;10062;51.052;13.756;2023-04-03T04:02:20;0.70;1.00
19805;DHT22;10062;51.052;13.756;2023-04-03T04:04:53;0.60;1.00
19805;DHT22;10062;51.052;13.756;2023-04-03T04:07:25;0.60;1.00
19805;DHT22;10062;51.052;13.756;2023-04-03T04:09:59;0.60;1.00
19805;DHT22;10062;51.052;13.756;2023-04-03T04:12:31;0.60;99.90
19805;DHT22;10062;51.052;13.756;2023-04-03T04:15:03;0.50;1.00
19805;DHT22;10062;51.052;13.756;2023-04-03T04:17:35;0.50;1.00
19805;DHT22;10062;51.052;13.756;2023-04-03T04:20:11;0.50;1.00
19805;DHT22;10062;51.052;13.756;2023-04-03T04:22:44;0.50;1.00
19805;DHT22;10062;51.052;13.756;2023-04-03T04:25:16;0.50;1.00
19805;DHT22;10062;51.052;13.756;2023-04-03T04:27:48;0.40;1.00
19805;DHT22;10062;51.052;13.756;2023-04-03T04:30:20;0.40;1.00
19805;DHT22;10062;51.052;13.756;2023-04-03T04:32:53;0.30;99.90
19805;DHT22;10062;51.052;13.756;2023-04-03T04:35:26;0.30;99.90
19805;DHT22;10062;51.052;13.756;2023-04-03T04:37:58;0.20;99.90
19805;DHT22;10062;51.052;13.756;2023-04-03T04:40:30;0.20;1.00
19805;DHT22;10062;51.052;13.756;2023-04-03T04:43:03;0.30;1.00
19805;DHT22;10062;51.052;13.756;2023-04-03T04:45:35;0.30;1.00
19805;DHT22;10062;51.052;13.756;2023-04-03T04:48:07;0.20;1.00
19805;DHT22;10062;51.052;13.756;2023-04-03T04:50:40;0.20;1.00
19805;DHT22;10062;51.052;13.756;2023-04-03T04:53:12;0.20;1.00
19805;DHT22;10062;51.052;13.756;2023-04-03T04:55:44;0.10;1.00
19805;DHT22;10062;51.052;13.756;2023-04-03T04:58:16;0.10;1.00
19805;DHT22;10062;51.052;13.756;2023-04-03T05:00:48;0.20;1.00
19805;DHT22;10062;51.052;13.756;2023-04-03T05:03:20;0.20;29.70
19805;DHT22;10062;51.052;13.756;2023-04-03T05:05:53;0.50;14.00
19805;DHT22;10062;51.052;13.756;2023-04-03T05:08:25;0.10;31.00
19805;DHT22;10062;51.052;13.756;2023-04-03T05:10:57;0.20;99.90
19805;DHT22;10062;51.052;13.756;2023-04-03T05:13:31;0.30;1.00
19805;DHT22;10062;51.052;13.756;2023-04-03T05:16:03;0.30;1.00
19805;DHT22;10062;51.052;13.756;2023-04-03T05:18:35;0.30;1.00
19805;DHT22;10062;51.052;13.756;2023-04-03T05:21:13;0.30;1.00
19805;DHT22;10062;51.052;13.756;2023-04-03T05:23:45;0.40;1.00
19805;DHT22;10062;51.052;13.756;2023-04-03T05:26:17;0.40;1.00
19805;DHT22;10062;51.052;13.756;2023-04-03T05:28:52;0.50;1.00
19805;DHT22;10062;51.052;13.756;2023-04-03T05:31:25;0.50;1.00
19805;DHT22;10062;51.052;13.756;2023-04-03T05:34:00;0.50;1.00
19805;DHT22;10062;51.052;13.756;2023-04-03T05:36:35;0.60;1.00
19805;DHT22;10062;51.052;13.756;2023-04-03T05:39:10;0.80;1.00
19805;DHT22;10062;51.052;13.756;2023-04-03T05:41:45;0.90;1.00
19805;DHT22;10062;51.052;13.756;2023-04-03T05:44:17;1.10;99.90
19805;DHT22;10062;51.052;13.756;2023-04-03T05:46:50;1.30;1.00
19805;DHT22;10062;51.052;13.756;2023-04-03T05:49:22;1.40;33.90
19805;DHT22;10062;51.052;13.756;2023-04-03T05:51:56;1.70;99.90
19805;DHT22;10062;51.052;13.756;2023-04-03T05:54:31;1.60;1.00
19805;DHT22;10062;51.052;13.756;2023-04-03T05:57:18;1.80;1.00
19805;DHT22;10062;51.052;13.756;2023-04-03T05:59:50;1.80;1.00
19805;DHT22;10062;51.052;13.756;2023-04-03T06:02:24;2.00;99.90
19805;DHT22;10062;51.052;13.756;2023-04-03T06:04:57;1.90;1.00
19805;DHT22;10062;51.052;13.756;2023-04-03T06:07:30;1.90;1.00
19805;DHT22;10062;51.052;13.756;2023-04-03T06:10:05;2.10;64.50
19805;DHT22;10062;51.052;13.756;2023-04-03T06:12:38;2.10;1.00
19805;DHT22;10062;51.052;13.756;2023-04-03T06:15:09;2.00;99.90
19805;DHT22;10062;51.052;13.756;2023-04-03T06:17:44;1.80;99.90
19805;DHT22;10062;51.052;13.756;2023-04-03T06:20:17;1.90;99.90
19805;DHT22;10062;51.052;13.756;2023-04-03T06:22:51;1.70;99.90
19805;DHT22;10062;51.052;13.756;2023-04-03T06:25:22;1.50;23.60
19805;DHT22;10062;51.052;13.756;2023-04-03T06:27:54;1.50;1.00
19805;DHT22;10062;51.052;13.756;2023-04-03T06:30:27;1.50;1.00
19805;DHT22;10062;51.052;13.756;2023-04-03T06:33:00;1.60;57.60
19805;DHT22;10062;51.052;13.756;2023-04-03T06:35:32;1.70;1.00
19805;DHT22;10062;51.052;13.756;2023-04-03T06:38:06;1.90;1.00
19805;DHT22;10062;51.052;13.756;2023-04-03T06:40:39;1.90;99.90
19805;DHT22;10062;51.052;13.756;2023-04-03T06:43:11;1.80;1.00
19805;DHT22;10062;51.052;13.756;2023-04-03T06:45:43;1.80;1.00
19805;DHT22;10062;51.052;13.756;2023-04-03T06:48:15;1.90;1.00
19805;DHT22;10062;51.052;13.756;2023-04-03T06:50:46;1.80;1.00
19805;DHT22;10062;51.052;13.756;2023-04-03T06:53:19;1.80;1.00
19805;DHT22;10062;51.052;13.756;2023-04-03T06:55:51;2.00;1.00
19805;DHT22;10062;51.052;13.756;2023-04-03T06:58:23;2.10;1.00
19805;DHT22;10062;51.052;13.756;2023-04-03T07:00:55;2.10;1.00
19805;DHT22;10062;51.052;13.756;2023-04-03T07:03:27;1.90;28.40
19805;DHT22;10062;51.052;13.756;2023-04-03T07:05:59;1.80;1.00
19805;DHT22;10062;51.052;13.756;2023-04-03T07:08:32;2.10;56.10
19805;DHT22;10062;51.052;13.756;2023-04-03T07:11:04;2.30;99.90
19805;DHT22;10062;51.052;13.756;2023-04-03T07:13:38;2.20;1.00
19805;DHT22;10062;51.052;13.756;2023-04-03T07:16:11;1.90;1.00
19805;DHT22;10062;51.052;13.756;2023-04-03T07:18:43;2.00;99.90
19805;DHT22;10062;51.052;13.756;2023-04-03T07:21:15;2.30;1.00
19805;DHT22;10062;51.052;13.756;2023-04-03T07:23:49;2.40;1.00
19805;DHT22;10062;51.052;13.756;2023-04-03T07:26:20;2.60;1.00
19805;DHT22;10062;51.052;13.756;2023-04-03T07:28:52;2.70;1.00
19805;DHT22;10062;51.052;13.756;2023-04-03T07:31:24;2.80;1.00
19805;DHT22;10062;51.052;13.756;2023-04-03T07:33:57;2.70;1.00
19805;DHT22;10062;51.052;13.756;2023-04-03T07:36:29;2.80;1.00
19805;DHT22;10062;51.052;13.756;2023-04-03T07:39:06;3.00;99.90
19805;DHT22;10062;51.052;13.756;2023-04-03T07:41:38;3.00;1.00
19805;DHT22;10062;51.052;13.756;2023-04-03T07:44:10;3.10;1.00
19805;DHT22;10062;51.052;13.756;2023-04-03T07:46:41;3.10;1.00
19805;DHT22;10062;51.052;13.756;2023-04-03T07:49:13;3.30;1.00
19805;DHT22;10062;51.052;13.756;2023-04-03T07:51:45;3.20;1.00
19805;DHT22;10062;51.052;13.756;2023-04-03T07:54:18;3.00;65.80
19805;DHT22;10062;51.052;13.756;2023-04-03T07:56:50;3.20;99.90
19805;DHT22;10062;51.052;13.756;2023-04-03T07:59:21;3.40;1.00
19805;DHT22;10062;51.052;13.756;2023-04-03T08:01:53;3.60;99.90
19805;DHT22;10062;51.052;13.756;2023-04-03T08:04:25;3.40;1.00
19805;DHT22;10062;51.052;13.756;2023-04-03T08:06:57;3.20;1.00
19805;DHT22;10062;51.052;13.756;2023-04-03T08:09:30;3.30;1.00
19805;DHT22;10062;51.052;13.756;2023-04-03T08:12:02;3.20;1.00
19805;DHT22;10062;51.052;13.756;2023-04-03T08:14:33;3.00;99.90
19805;DHT22;10062;51.052;13.756;2023-04-03T08:17:05;3.10;1.00
19805;DHT22;10062;51.052;13.756;2023-04-03T08:19:39;3.30;1.00
19805;DHT22;10062;51.052;13.756;2023-04-03T08:22:11;3.20;1.00
19805;DHT22;10062;51.052;13.756;2023-04-03T08:24:44;3.40;1.00
19805;DHT22;10062;51.052;13.756;2023-04-03T08:27:16;3.50;1.00
19805;DHT22;10062;51.052;13.756;2023-04-03T08:29:48;3.60;1.00
19805;DHT22;10062;51.052;13.756;2023-04-03T08:32:19;4.10;92.10
19805;DHT22;10062;51.052;13.756;2023-04-03T08:34:51;4.70;1.00
19805;DHT22;10062;51.052;13.756;2023-04-03T08:37:23;4.20;1.00
19805;DHT22;10062;51.052;13.756;2023-04-03T08:39:56;3.70;1.00
19805;DHT22;10062;51.052;13.756;2023-04-03T08:42:36;3.60;99.90
19805;DHT22;10062;51.052;13.756;2023-04-03T08:45:13;3.20;1.00
19805;DHT22;10062;51.052;13.756;2023-04-03T08:47:50;3.20;1.00
19805;DHT22;10062;51.052;13.756;2023-04-03T08:50:28;3.30;1.00
19805;DHT22;10062;51.052;13.756;2023-04-03T08:53:01;3.60;1.00
19805;DHT22;10062;51.052;13.756;2023-04-03T08:55:40;4.10;1.00
19805;DHT22;10062;51.052;13.756;2023-04-03T08:58:16;4.60;1.00
19805;DHT22;10062;51.052;13.756;2023-04-03T09:00:49;4.70;1.00
19805;DHT22;10062;51.052;13.756;2023-04-03T09:03:22;5.30;1.00
19805;DHT22;10062;51.052;13.756;2023-04-03T09:05:57;5.60;99.90
19805;DHT22;10062;51.052;13.756;2023-04-03T09:08:33;6.00;1.00
19805;DHT22;10062;51.052;13.756;2023-04-03T09:11:15;6.40;1.00
19805;DHT22;10062;51.052;13.756;2023-04-03T09:13:53;6.60;1.00
19805;DHT22;10062;51.052;13.756;2023-04-03T09:16:35;6.50;1.00
19805;DHT22;10062;51.052;13.756;2023-04-03T09:19:14;6.40;1.00
19805;DHT22;10062;51.052;13.756;2023-04-03T09:21:48;7.10;1.00
19805;DHT22;10062;51.052;13.756;2023-04-03T09:24:21;6.80;1.00
19805;DHT22;10062;51.052;13.756;2023-04-03T09:26:57;6.10;1.00
19805;DHT22;10062;51.052;13.756;2023-04-03T09:29:31;6.30;1.00
19805;DHT22;10062;51.052;13.756;2023-04-03T09:32:19;7.70;1.00
19805;DHT22;10062;51.052;13.756;2023-04-03T09:34:52;10.00;1.00
19805;DHT22;10062;51.052;13.756;2023-04-03T09:37:35;10.20;99.90
19805;DHT22;10062;51.052;13.756;2023-04-03T09:40:29;9.00;99.90
19805;DHT22;10062;51.052;13.756;2023-04-03T09:43:19;8.00;99.90
19805;DHT22;10062;51.052;13.756;2023-04-03T09:45:51;6.70;99.90
19805;DHT22;10062;51.052;13.756;2023-04-03T09:48:25;6.40;99.90
19805;DHT22;10062;51.052;13.756;2023-04-03T09:51:00;6.40;99.90
19805;DHT22;10062;51.052;13.756;2023-04-03T09:53:35;5.60;99.90
19805;DHT22;10062;51.052;13.756;2023-04-03T09:56:19;5.00;1.00
19805;DHT22;10062;51.052;13.756;2023-04-03T09:59:07;7.40;99.90
19805;DHT22;10062;51.052;13.756;2023-04-03T10:01:58;7.90;99.90
19805;DHT22;10062;51.052;13.756;2023-04-03T10:04:38;9.20;99.90
19805;DHT22;10062;51.052;13.756;2023-04-03T10:07:28;8.20;99.90
19805;DHT22;10062;51.052;13.756;2023-04-03T10:10:01;7.40;99.90
19805;DHT22;10062;51.052;13.756;2023-04-03T10:12:33;6.40;99.90
19805;DHT22;10062;51.052;13.756;2023-04-03T10:15:14;6.00;99.90
19805;DHT22;10062;51.052;13.756;2023-04-03T10:17:52;5.60;99.90
19805;DHT22;10062;51.052;13.756;2023-04-03T10:20:31;5.40;99.90
19805;DHT22;10062;51.052;13.756;2023-04-03T10:23:15;5.60;99.90
19805;DHT22;10062;51.052;13.756;2023-04-03T10:25:55;6.30;99.90
19805;DHT22;10062;51.052;13.756;2023-04-03T10:28:36;7.00;99.90
19805;DHT22;10062;51.052;13.756;2023-04-03T10:31:15;8.90;99.90
19805;DHT22;10062;51.052;13.756;2023-04-03T10:33:53;13.10;99.90
19805;DHT22;10062;51.052;13.756;2023-04-03T10:36:35;13.10;1.00
19805;DHT22;10062;51.052;13.756;2023-04-03T10:39:15;12.30;1.00
19805;DHT22;10062;51.052;13.756;2023-04-03T10:41:59;12.50;1.00
19805;DHT22;10062;51.052;13.756;2023-04-03T10:44:36;14.00;1.00
19805;DHT22;10062;51.052;13.756;2023-04-03T10:47:17;14.50;1.00
19805;DHT22;10062;51.052;13.756;2023-04-03T10:49:56;14.70;1.00
19805;DHT22;10062;51.052;13.756;2023-04-03T10:52:36;13.40;1.00
19805;DHT22;10062;51.052;13.756;2023-04-03T10:55:21;12.60;1.00
19805;DHT22;10062;51.052;13.756;2023-04-03T10:57:59;12.00;1.00
19805;DHT22;10062;51.052;13.756;2023-04-03T11:00:39;11.20;1.00
19805;DHT22;10062;51.052;13.756;2023-04-03T11:03:16;12.10;1.00
19805;DHT22;10062;51.052;13.756;2023-04-03T11:05:53;15.80;1.00
19805;DHT22;10062;51.052;13.756;2023-04-03T11:08:29;19.90;1.00
19805;DHT22;10062;51.052;13.756;2023-04-03T11:11:06;22.20;1.00
19805;DHT22;10062;51.052;13.756;2023-04-03T11:13:43;19.70;1.00
19805;DHT22;10062;51.052;13.756;2023-04-03T11:16:19;15.10;1.00
19805;DHT22;10062;51.052;13.756;2023-04-03T11:18:57;12.00;1.00
19805;DHT22;10062;51.052;13.756;2023-04-03T11:21:34;11.30;1.00
19805;DHT22;10062;51.052;13.756;2023-04-03T11:24:17;11.00;1.00
19805;DHT22;10062;51.052;13.756;2023-04-03T11:26:54;11.30;1.00
19805;DHT22;10062;51.052;13.756;2023-04-03T11:29:29;11.10;1.00
19805;DHT22;10062;51.052;13.756;2023-04-03T11:32:16;10.30;1.00
19805;DHT22;10062;51.052;13.756;2023-04-03T11:34:57;9.50;1.00
19805;DHT22;10062;51.052;13.756;2023-04-03T11:37:34;9.40;1.00
19805;DHT22;10062;51.052;13.756;2023-04-03T11:40:13;8.10;1.00
19805;DHT22;10062;51.052;13.756;2023-04-03T11:42:52;7.90;1.00
19805;DHT22;10062;51.052;13.756;2023-04-03T11:45:37;8.00;1.00
19805;DHT22;10062;51.052;13.756;2023-04-03T11:54:44;10.60;1.00
19805;DHT22;10062;51.052;13.756;2023-04-03T11:57:50;8.80;1.00
19805;DHT22;10062;51.052;13.756;2023-04-03T12:00:57;8.70;1.00
19805;DHT22;10062;51.052;13.756;2023-04-03T12:07:02;7.00;1.00
19805;DHT22;10062;51.052;13.756;2023-04-03T12:09:56;7.20;1.00
19805;DHT22;10062;51.052;13.756;2023-04-03T12:12:37;7.00;1.00
19805;DHT22;10062;51.052;13.756;2023-04-03T12:21:24;7.60;1.00
19805;DHT22;10062;51.052;13.756;2023-04-03T12:24:24;7.90;1.00
19805;DHT22;10062;51.052;13.756;2023-04-03T12:27:14;8.00;1.00
19805;DHT22;10062;51.052;13.756;2023-04-03T12:29:53;7.80;1.00
19805;DHT22;10062;51.052;13.756;2023-04-03T12:32:37;7.80;1.00
19805;DHT22;10062;51.052;13.756;2023-04-03T12:35:21;8.20;1.00
19805;DHT22;10062;51.052;13.756;2023-04-03T12:38:14;8.20;1.00
19805;DHT22;10062;51.052;13.756;2023-04-03T12:40:51;7.80;1.00
19805;DHT22;10062;51.052;13.756;2023-04-03T12:43:47;7.80;1.00
19805;DHT22;10062;51.052;13.756;2023-04-03T12:46:23;7.90;1.00
19805;DHT22;10062;51.052;13.756;2023-04-03T12:48:57;7.70;1.00
19805;DHT22;10062;51.052;13.756;2023-04-03T12:51:34;7.60;1.00
19805;DHT22;10062;51.052;13.756;2023-04-03T12:54:15;7.60;1.00
19805;DHT22;10062;51.052;13.756;2023-04-03T12:56:47;7.50;1.00
19805;DHT22;10062;51.052;13.756;2023-04-03T12:59:22;7.30;1.00
19805;DHT22;10062;51.052;13.756;2023-04-03T13:01:55;7.60;1.00
19805;DHT22;10062;51.052;13.756;2023-04-03T13:04:28;7.70;1.00
19805;DHT22;10062;51.052;13.756;2023-04-03T13:07:00;7.60;1.00
19805;DHT22;10062;51.052;13.756;2023-04-03T13:09:32;6.90;1.00
19805;DHT22;10062;51.052;13.756;2023-04-03T13:12:11;6.50;1.00
19805;DHT22;10062;51.052;13.756;2023-04-03T13:14:54;6.70;1.00
19805;DHT22;10062;51.052;13.756;2023-04-03T13:17:26;6.90;1.00
19805;DHT22;10062;51.052;13.756;2023-04-03T13:20:11;7.30;1.00
19805;DHT22;10062;51.052;13.756;2023-04-03T13:22:48;7.50;1.00
19805;DHT22;10062;51.052;13.756;2023-04-03T13:25:21;7.40;1.00
19805;DHT22;10062;51.052;13.756;2023-04-03T13:27:54;7.40;1.00
19805;DHT22;10062;51.052;13.756;2023-04-03T13:30:30;7.60;1.00
19805;DHT22;10062;51.052;13.756;2023-04-03T13:33:05;7.80;1.00
19805;DHT22;10062;51.052;13.756;2023-04-03T13:35:39;7.90;1.00
19805;DHT22;10062;51.052;13.756;2023-04-03T13:38:23;7.80;1.00
19805;DHT22;10062;51.052;13.756;2023-04-03T13:40:57;7.90;1.00
19805;DHT22;10062;51.052;13.756;2023-04-03T13:43:32;7.90;1.00
19805;DHT22;10062;51.052;13.756;2023-04-03T13:46:25;7.70;1.00
19805;DHT22;10062;51.052;13.756;2023-04-03T13:49:17;7.60;1.00
19805;DHT22;10062;51.052;13.756;2023-04-03T13:51:49;7.50;1.00
19805;DHT22;10062;51.052;13.756;2023-04-03T13:54:28;7.40;1.00
19805;DHT22;10062;51.052;13.756;2023-04-03T13:57:01;7.10;1.00
19805;DHT22;10062;51.052;13.756;2023-04-03T13:59:37;7.10;1.00
19805;DHT22;10062;51.052;13.756;2023-04-03T14:02:15;7.00;1.00
19805;DHT22;10062;51.052;13.756;2023-04-03T14:04:51;7.00;1.00
19805;DHT22;10062;51.052;13.756;2023-04-03T14:07:26;9.50;1.00
19805;DHT22;10062;51.052;13.756;2023-04-03T14:09:59;6.80;1.00
19805;DHT22;10062;51.052;13.756;2023-04-03T14:12:33;7.30;1.00
19805;DHT22;10062;51.052;13.756;2023-04-03T14:15:15;7.60;1.00
19805;DHT22;10062;51.052;13.756;2023-04-03T14:17:49;7.70;1.00
19805;DHT22;10062;51.052;13.756;2023-04-03T14:20:25;7.70;1.00
19805;DHT22;10062;51.052;13.756;2023-04-03T14:22:58;7.80;1.00
19805;DHT22;10062;51.052;13.756;2023-04-03T14:25:29;7.70;1.00
19805;DHT22;10062;51.052;13.756;2023-04-03T14:28:14;7.60;1.00
19805;DHT22;10062;51.052;13.756;2023-04-03T14:30:47;7.40;1.00
19805;DHT22;10062;51.052;13.756;2023-04-03T14:33:21;7.20;1.00
19805;DHT22;10062;51.052;13.756;2023-04-03T14:35:53;7.20;1.00
19805;DHT22;10062;51.052;13.756;2023-04-03T14:38:27;7.30;1.00
19805;DHT22;10062;51.052;13.756;2023-04-03T14:40:59;7.10;1.00
19805;DHT22;10062;51.052;13.756;2023-04-03T14:43:30;7.10;1.00
19805;DHT22;10062;51.052;13.756;2023-04-03T14:46:02;7.00;1.00
19805;DHT22;10062;51.052;13.756;2023-04-03T14:48:35;4.70;1.00
19805;DHT22;10062;51.052;13.756;2023-04-03T14:51:08;7.00;1.00
19805;DHT22;10062;51.052;13.756;2023-04-03T14:53:42;7.00;1.00
19805;DHT22;10062;51.052;13.756;2023-04-03T14:56:16;7.10;1.00
19805;DHT22;10062;51.052;13.756;2023-04-03T14:58:49;7.70;1.00
19805;DHT22;10062;51.052;13.756;2023-04-03T15:01:21;7.30;1.00
19805;DHT22;10062;51.052;13.756;2023-04-03T15:03:54;7.20;1.00
19805;DHT22;10062;51.052;13.756;2023-04-03T15:06:26;7.10;1.00
19805;DHT22;10062;51.052;13.756;2023-04-03T15:08:57;7.10;1.00
19805;DHT22;10062;51.052;13.756;2023-04-03T15:11:29;6.90;1.00
19805;DHT22;10062;51.052;13.756;2023-04-03T15:14:01;6.90;1.00
19805;DHT22;10062;51.052;13.756;2023-04-03T15:16:32;6.90;1.00
19805;DHT22;10062;51.052;13.756;2023-04-03T15:19:05;7.00;1.00
19805;DHT22;10062;51.052;13.756;2023-04-03T15:21:37;7.00;1.00
19805;DHT22;10062;51.052;13.756;2023-04-03T15:24:09;7.10;1.00
19805;DHT22;10062;51.052;13.756;2023-04-03T15:26:41;7.00;1.00
19805;DHT22;10062;51.052;13.756;2023-04-03T15:29:13;6.90;1.00
19805;DHT22;10062;51.052;13.756;2023-04-03T15:31:45;6.90;1.00
19805;DHT22;10062;51.052;13.756;2023-04-03T15:34:17;6.90;1.00
19805;DHT22;10062;51.052;13.756;2023-04-03T15:36:50;6.90;1.00
19805;DHT22;10062;51.052;13.756;2023-04-03T15:39:23;6.70;1.00
19805;DHT22;10062;51.052;13.756;2023-04-03T15:41:55;6.40;1.00
19805;DHT22;10062;51.052;13.756;2023-04-03T15:44:30;6.70;1.00
19805;DHT22;10062;51.052;13.756;2023-04-03T15:47:03;9.00;1.00
19805;DHT22;10062;51.052;13.756;2023-04-03T15:49:36;6.60;1.00
19805;DHT22;10062;51.052;13.756;2023-04-03T15:52:08;6.60;1.00
19805;DHT22;10062;51.052;13.756;2023-04-03T15:54:40;6.70;1.00
19805;DHT22;10062;51.052;13.756;2023-04-03T15:57:12;9.40;1.00
19805;DHT22;10062;51.052;13.756;2023-04-03T15:59:43;6.50;1.00
19805;DHT22;10062;51.052;13.756;2023-04-03T16:02:15;6.10;1.00
19805;DHT22;10062;51.052;13.756;2023-04-03T16:04:48;6.20;1.00
19805;DHT22;10062;51.052;13.756;2023-04-03T16:07:20;6.20;1.00
19805;DHT22;10062;51.052;13.756;2023-04-03T16:09:52;6.30;1.00
19805;DHT22;10062;51.052;13.756;2023-04-03T16:12:24;6.20;1.00
19805;DHT22;10062;51.052;13.756;2023-04-03T16:14:55;5.80;1.00
19805;DHT22;10062;51.052;13.756;2023-04-03T16:17:27;5.80;1.00
19805;DHT22;10062;51.052;13.756;2023-04-03T16:20:12;6.00;1.00
19805;DHT22;10062;51.052;13.756;2023-04-03T16:25:19;5.90;1.00
19805;DHT22;10062;51.052;13.756;2023-04-03T16:27:51;5.90;1.00
19805;DHT22;10062;51.052;13.756;2023-04-03T16:30:23;5.80;1.00
19805;DHT22;10062;51.052;13.756;2023-04-03T16:32:59;5.70;1.00
19805;DHT22;10062;51.052;13.756;2023-04-03T16:35:34;5.80;1.00
19805;DHT22;10062;51.052;13.756;2023-04-03T16:38:06;7.60;1.00
19805;DHT22;10062;51.052;13.756;2023-04-03T16:40:37;5.30;1.00
19805;DHT22;10062;51.052;13.756;2023-04-03T16:43:09;5.30;1.00
19805;DHT22;10062;51.052;13.756;2023-04-03T16:45:41;5.10;1.00
19805;DHT22;10062;51.052;13.756;2023-04-03T16:48:12;5.20;1.00